METAR AND TAF INFORMATION
METAR FOR KTTS
ADDS - METARS form results

(1748 UTC 15 April 2021)
Data provider http://aviationweather.gov/metar/data/
 
METAR text: KTTS 151656Z AUTO 20007KT 10SM FEW110 SCT140 BKN170 BKN200 27/17 A2993 RMK AO2 SLP140 T02670169 $
Conditions at: KTTS (NASA SHUTTLE FCL, FL, US) observed 1656 UTC 15 April 2021
Temperature: 26.7°C (80°F)
Dewpoint: 16.9°C (62°F) [RH = 55%]
Pressure (altimeter): 29.93 inches Hg (1013.6 mb)
[Sea-level pressure: 1014.0 mb]
Winds: from the SSW (200 degrees) at 8 MPH (7 knots; 3.6 m/s)
Visibility: 10 or more miles (16+ km)
Ceiling: 17000 feet AGL
Clouds: few clouds at 11000 feet AGL
scattered clouds at 14000 feet AGL
broken clouds at 17000 feet AGL
broken clouds at 20000 feet AGL
Weather:
SOME DATA ABOVE MAY BE INACCURATE!!!
"$" is an indication the sensor requires maintenance

 AIRPORT MAP

 RUNWAY INFORMATION
Runway 15 Runway length 15000 ft Runway width 300 ft
Runway elevation 10 ft Runway displaced threshold 0 ft Runway heading 150
Runway 33 Runway length 15000 ft Runway width 300 ft
Runway elevation 10 ft Runway displaced threshold 0 ft Runway heading 330

 AIRPORT FREQUENCIES
Type A/D Name ORLANDO AP Frequency 134.95 MHZ
Type CTAF Name CTAF Frequency 123.6 MHZ
Type GND Name GND Frequency 121.75 MHZ
Type PMSV Name PMSV METRO Frequency 34.46 MHZ
Type TWR Name TWR Frequency 128.55 MHZ

 AIRPORT NEAR NAVIGATION AIDS

-